Terminal Aerodrome Forecast
Issued by NWS

Home | Current Version | Previous Version | Text Only | Print | Product List | Glossary On
Versions: 1 2 3 4 5 6 7 8 9 10 11 12 13 14 15
000
FTAK31 PAJN 111139
TAFAYA
TAF
PAYA 111139Z 1112/1212 VRB03KT P6SM SKC WS020/04025KT
     FM111800 05004KT P6SM SKC WS020/04025KT
     FM120000 VRB02KT P6SM SKC
      AMD LTD TO CLD VIS AND WIND 1201/1209=

USA.gov is the U.S. government's official web portal to all federal, state and local government web resources and services.